createdAt,value
2019-04-22T00:01:19.663Z,38.20
2019-04-22T00:03:53.167Z,38.30
2019-04-22T00:06:44.327Z,38.50
2019-04-22T00:09:19.118Z,38.50
2019-04-22T00:12:01.763Z,38.50
2019-04-22T00:14:14.977Z,38.50
2019-04-22T00:16:53.626Z,38.70
2019-04-22T00:19:29.129Z,39.20
2019-04-22T00:22:05.733Z,38.60
2019-04-22T00:24:31.832Z,38.60
2019-04-22T00:27:04.121Z,38.60
2019-04-22T00:32:19.386Z,39.00
2019-04-22T00:35:03.501Z,39.20
2019-04-22T00:37:34.667Z,39.40
2019-04-22T00:40:12.953Z,39.50
2019-04-22T00:42:42.733Z,39.60
2019-04-22T00:45:15.184Z,39.70
2019-04-22T00:47:41.459Z,39.80
2019-04-22T00:52:47.565Z,39.90
2019-04-22T00:55:23.444Z,40.00
2019-04-22T00:57:46.533Z,40.00
2019-04-22T01:00:24.842Z,39.90
2019-04-22T01:02:58.308Z,40.00
2019-04-22T01:05:30.212Z,40.00
2019-04-22T01:08:03.988Z,40.00
2019-04-22T01:10:34.098Z,40.10
2019-04-22T01:13:04.758Z,40.30
2019-04-22T01:15:47.494Z,40.40
2019-04-22T01:18:03.956Z,40.40
2019-04-22T01:21:00.667Z,40.50
2019-04-22T01:23:11.274Z,40.40
2019-04-22T01:25:42.116Z,40.70
2019-04-22T01:28:12.619Z,40.70
2019-04-22T01:30:38.421Z,40.80
2019-04-22T01:33:09.453Z,40.70
2019-04-22T01:35:48.875Z,40.60
2019-04-22T01:38:18.975Z,40.60
2019-04-22T01:41:12.382Z,40.80
2019-04-22T01:43:50.329Z,40.80
2019-04-22T01:46:11.045Z,40.80
2019-04-22T01:48:44.891Z,40.70
2019-04-22T01:51:00.863Z,40.50
2019-04-22T01:53:42.781Z,40.70
2019-04-22T01:56:16.233Z,40.70
2019-04-22T01:58:42.213Z,40.80
2019-04-22T02:01:22.198Z,41.00
2019-04-22T02:03:56.107Z,41.00
2019-04-22T02:06:27.700Z,41.10
2019-04-22T02:11:37.307Z,41.20
2019-04-22T02:13:56.747Z,41.30
2019-04-22T02:16:34.623Z,41.40
2019-04-22T02:19:05.311Z,41.50
2019-04-22T02:21:38.585Z,41.50
2019-04-22T02:24:07.407Z,41.50
2019-04-22T02:26:48.207Z,41.50
2019-04-22T02:29:06.506Z,41.60
2019-04-22T02:31:45.309Z,41.60
2019-04-22T02:37:03.183Z,41.70
2019-04-22T02:39:20.152Z,41.90
2019-04-22T02:41:49.723Z,42.20
2019-04-22T02:47:12.024Z,42.30
2019-04-22T02:51:52.203Z,42.40
2019-04-22T02:57:12.269Z,42.50
2019-04-22T03:02:28.689Z,42.80
2019-04-22T03:04:37.378Z,42.90
2019-04-22T03:07:10.683Z,43.30
2019-04-22T03:09:58.100Z,43.40
2019-04-22T03:17:20.637Z,43.20
2019-04-22T03:22:28.621Z,43.10
2019-04-22T03:25:24.434Z,42.90
2019-04-22T03:33:04.975Z,43.00
2019-04-22T03:40:33.913Z,43.20
2019-04-22T03:47:59.621Z,43.20
2019-04-22T03:53:05.917Z,43.00
2019-04-22T03:55:35.041Z,43.10
2019-04-22T03:58:05.570Z,43.20
2019-04-22T04:03:07.499Z,43.20
2019-04-22T04:08:15.101Z,43.40
2019-04-22T04:15:40.709Z,44.80
2019-04-22T04:18:21.226Z,45.20
2019-04-22T04:23:37.596Z,45.70
2019-04-22T04:26:30.105Z,46.00
2019-04-22T04:31:09.602Z,46.10
2019-04-22T04:33:43.879Z,46.20
2019-04-22T04:41:23.133Z,46.10
2019-04-22T04:44:04.376Z,46.00
2019-04-22T04:46:24.204Z,46.00
2019-04-22T04:53:58.240Z,45.70
2019-04-22T04:56:30.383Z,45.70
2019-04-22T04:59:11.944Z,45.60
2019-04-22T05:01:30.893Z,46.10
2019-04-22T05:11:47.116Z,44.90
2019-04-22T05:14:14.894Z,45.20
2019-04-22T05:16:51.126Z,44.90
2019-04-22T05:19:15.891Z,45.00
2019-04-22T05:21:51.458Z,44.90
2019-04-22T05:24:19.896Z,44.50
2019-04-22T05:26:50.709Z,44.40
2019-04-22T05:29:17.073Z,44.20
2019-04-22T05:31:52.229Z,43.80
2019-04-22T05:34:25.454Z,43.20
2019-04-22T05:36:52.862Z,42.60
2019-04-22T05:39:22.673Z,42.20
2019-04-22T05:42:03.199Z,41.90
2019-04-22T05:44:39.575Z,42.00
2019-04-22T05:47:02.922Z,41.60
2019-04-22T05:49:36.169Z,41.10
2019-04-22T05:52:12.227Z,41.00
2019-04-22T05:54:42.758Z,41.20
2019-04-22T05:57:14.475Z,41.10
2019-04-22T05:59:45.959Z,40.80
2019-04-22T06:02:23.618Z,40.30
2019-04-22T06:04:52.044Z,40.50
2019-04-22T06:07:19.709Z,40.50
2019-04-22T06:09:55.385Z,40.40
2019-04-22T06:12:23.071Z,40.10
2019-04-22T06:14:58.639Z,40.10
2019-04-22T06:17:39.013Z,39.90
2019-04-22T06:20:02.719Z,40.10
2019-04-22T06:22:43.338Z,39.90
2019-04-22T06:25:41.601Z,39.90
2019-04-22T06:27:42.830Z,39.70
2019-04-22T06:30:15.674Z,39.40
2019-04-22T06:32:46.917Z,39.80
2019-04-22T06:35:37.989Z,39.60
2019-04-22T06:38:09.448Z,38.80
2019-04-22T06:40:29.688Z,38.50
2019-04-22T06:43:05.729Z,39.20
2019-04-22T06:45:31.746Z,38.50
2019-04-22T06:50:40.469Z,38.70
2019-04-22T06:53:02.663Z,37.70
2019-04-22T06:58:13.780Z,37.00
2019-04-22T07:00:43.090Z,37.10
2019-04-22T07:05:47.486Z,36.70
2019-04-22T07:08:45.686Z,36.60
2019-04-22T07:11:05.733Z,36.90
2019-04-22T07:13:49.139Z,37.30
2019-04-22T07:18:48.694Z,35.90
2019-04-22T07:21:22.208Z,35.90
2019-04-22T07:26:25.009Z,36.00
2019-04-22T07:28:54.894Z,36.50
2019-04-22T07:31:27.063Z,35.80
2019-04-22T07:34:13.633Z,35.60
2019-04-22T07:39:05.718Z,36.00
2019-04-22T07:41:37.884Z,35.50
2019-04-22T07:44:16.663Z,34.50
2019-04-22T07:46:54.781Z,33.70
2019-04-22T07:49:36.124Z,34.50
2019-04-22T07:51:44.636Z,33.90
2019-04-22T07:54:22.177Z,33.30
2019-04-22T07:56:54.897Z,33.90
2019-04-22T07:59:22.490Z,33.00
2019-04-22T08:01:55.893Z,32.50
2019-04-22T08:04:49.452Z,32.90
2019-04-22T08:07:03.626Z,33.80
2019-04-22T08:09:41.811Z,33.20
2019-04-22T08:11:57.855Z,33.00
2019-04-22T08:14:42.370Z,32.70
2019-04-22T08:17:33.080Z,32.00
2019-04-22T08:19:43.293Z,32.20
2019-04-22T08:22:11.803Z,31.20
2019-04-22T08:24:51.347Z,31.40
2019-04-22T08:27:20.465Z,31.00
2019-04-22T08:29:59.790Z,31.20
2019-04-22T08:32:21.708Z,32.20
2019-04-22T08:34:59.974Z,31.70
2019-04-22T08:40:03.418Z,30.30
2019-04-22T08:45:09.391Z,29.70
2019-04-22T08:47:39.811Z,29.90
2019-04-22T08:50:07.761Z,29.60
2019-04-22T08:52:41.958Z,29.70
2019-04-22T08:55:12.670Z,29.80
2019-04-22T08:58:03.698Z,29.10
2019-04-22T09:00:15.458Z,29.20
2019-04-22T09:02:51.556Z,29.90
2019-04-22T09:05:39.862Z,29.70
2019-04-22T09:07:52.177Z,28.70
2019-04-22T09:10:27.264Z,28.60
2019-04-22T09:15:31.245Z,28.50
2019-04-22T09:18:02.277Z,28.50
2019-04-22T09:20:40.697Z,29.10
2019-04-22T09:23:07.277Z,27.60
2019-04-22T09:25:46.779Z,27.90
2019-04-22T09:28:15.122Z,28.10
2019-04-22T09:33:21.054Z,27.50
2019-04-22T09:41:00.728Z,28.10
2019-04-22T09:43:32.199Z,28.50
2019-04-22T09:45:57.512Z,26.90
2019-04-22T09:48:39.920Z,27.00
2019-04-22T09:51:03.769Z,27.70
2019-04-22T09:53:41.352Z,27.30
2019-04-22T09:56:09.713Z,26.70
2019-04-22T09:58:39.417Z,25.90
2019-04-22T10:01:25.842Z,26.20
2019-04-22T10:03:51.391Z,26.00
2019-04-22T10:16:31.157Z,26.40
2019-04-22T10:21:40.010Z,25.30
2019-04-22T10:24:09.261Z,25.10
2019-04-22T10:26:39.468Z,25.90
2019-04-22T10:29:10.805Z,25.30
2019-04-22T10:31:43.515Z,26.20
2019-04-22T10:34:02.647Z,26.80
2019-04-22T10:36:21.449Z,25.20
2019-04-22T10:38:52.500Z,25.00
2019-04-22T10:41:22.967Z,25.60
2019-04-22T10:43:55.129Z,24.70
2019-04-22T10:46:26.346Z,24.90
2019-04-22T10:48:57.862Z,25.70
2019-04-22T10:51:28.668Z,25.70
2019-04-22T10:53:59.693Z,25.70
2019-04-22T10:56:30.748Z,25.30
2019-04-22T10:59:00.840Z,23.80
2019-04-22T11:01:33.857Z,24.90
2019-04-22T11:04:06.997Z,24.70
2019-04-22T11:06:44.821Z,25.50
2019-04-22T11:09:10.600Z,25.20
2019-04-22T11:11:52.075Z,24.40
2019-04-22T11:14:14.802Z,24.90
2019-04-22T11:16:45.591Z,25.80
2019-04-22T11:19:21.829Z,24.80
2019-04-22T11:22:05.079Z,25.30
2019-04-22T11:24:23.741Z,25.90
2019-04-22T11:26:54.948Z,25.60
2019-04-22T11:29:25.566Z,25.50
2019-04-22T11:31:56.615Z,25.10
2019-04-22T11:34:26.949Z,25.90
2019-04-22T11:36:58.953Z,26.10
2019-04-22T11:39:32.217Z,25.30
2019-04-22T11:42:02.338Z,24.70
2019-04-22T11:44:32.972Z,25.30
2019-04-22T11:47:03.398Z,24.20
2019-04-22T11:49:34.178Z,25.50
2019-04-22T11:52:06.833Z,24.40
2019-04-22T11:54:36.891Z,24.70
2019-04-22T11:57:07.488Z,25.10
2019-04-22T11:59:38.514Z,24.90
2019-04-22T12:02:14.407Z,24.60
2019-04-22T12:04:43.722Z,23.50
2019-04-22T12:07:15.095Z,23.80
2019-04-22T12:09:45.844Z,24.30
2019-04-22T12:12:16.204Z,24.50
2019-04-22T12:14:47.922Z,23.50
2019-04-22T12:17:20.013Z,24.70
2019-04-22T12:19:52.374Z,24.50
2019-04-22T12:22:24.994Z,24.40
2019-04-22T12:24:58.608Z,23.10
2019-04-22T12:27:30.156Z,23.50
2019-04-22T12:30:00.834Z,23.90
2019-04-22T12:32:31.612Z,24.50
2019-04-22T12:35:15.633Z,23.70
2019-04-22T12:37:51.627Z,24.20
2019-04-22T12:40:31.541Z,24.40
2019-04-22T12:42:51.460Z,23.90
2019-04-22T12:45:24.603Z,23.60
2019-04-22T12:47:56.030Z,22.30
2019-04-22T12:50:40.362Z,22.60
2019-04-22T12:53:22.589Z,22.70
2019-04-22T12:55:53.682Z,23.30
2019-04-22T12:58:23.401Z,22.90
2019-04-22T13:00:58.960Z,23.10
2019-04-22T13:03:36.117Z,22.90
2019-04-22T13:06:07.805Z,22.50
2019-04-22T13:08:41.485Z,22.20
2019-04-22T13:11:16.576Z,22.60
2019-04-22T13:13:52.163Z,23.40
2019-04-22T13:16:22.938Z,22.40
2019-04-22T13:18:59.283Z,22.30
2019-04-22T13:21:24.880Z,21.60
2019-04-22T13:23:54.965Z,21.20
2019-04-22T13:26:27.012Z,22.80
2019-04-22T13:28:59.049Z,22.00
2019-04-22T13:31:31.019Z,22.00
2019-04-22T13:34:02.308Z,21.40
2019-04-22T13:36:32.824Z,21.40
2019-04-22T13:39:03.034Z,22.00
2019-04-22T13:41:40.506Z,22.10
2019-04-22T13:44:05.084Z,22.80
2019-04-22T13:46:35.558Z,22.90
2019-04-22T13:49:35.355Z,22.30
2019-04-22T13:52:15.104Z,23.00
2019-04-22T13:56:59.703Z,21.80
2019-04-22T13:59:24.687Z,23.20
2019-04-22T14:01:50.596Z,22.70
2019-04-22T14:04:25.033Z,22.90
2019-04-22T14:06:56.611Z,22.40
2019-04-22T14:09:28.383Z,22.40
2019-04-22T14:12:03.965Z,22.40
2019-04-22T14:14:30.341Z,22.00
2019-04-22T14:17:00.751Z,22.80
2019-04-22T14:19:32.319Z,22.40
2019-04-22T14:22:03.998Z,21.30
2019-04-22T14:24:36.464Z,21.90
2019-04-22T14:27:21.863Z,22.50
2019-04-22T14:29:39.666Z,21.60
2019-04-22T14:32:17.064Z,23.20
2019-04-22T14:34:44.860Z,22.60
2019-04-22T14:37:16.452Z,23.40
2019-04-22T14:39:46.492Z,22.70
2019-04-22T14:44:23.478Z,22.60
2019-04-22T14:45:26.099Z,22.10
2019-04-22T14:47:47.668Z,22.10
2019-04-22T14:52:46.205Z,23.00
2019-04-22T14:55:09.197Z,22.90
2019-04-22T14:57:34.269Z,23.20
2019-04-22T15:00:11.526Z,23.70
2019-04-22T15:02:43.874Z,24.10
2019-04-22T15:05:21.920Z,24.50
2019-04-22T15:07:53.032Z,25.00
2019-04-22T15:10:24.357Z,25.50
2019-04-22T15:12:57.395Z,25.50
2019-04-22T15:15:32.215Z,24.80
2019-04-22T15:18:07.917Z,25.70
2019-04-22T15:20:43.811Z,25.90
2019-04-22T15:23:14.858Z,26.10
2019-04-22T15:25:46.342Z,25.90
2019-04-22T15:28:17.558Z,25.80
2019-04-22T15:30:47.879Z,26.30
2019-04-22T15:33:19.314Z,26.40
2019-04-22T15:35:49.566Z,26.80
2019-04-22T15:38:22.742Z,27.30
2019-04-22T15:40:52.484Z,27.50
2019-04-22T15:43:25.515Z,27.20
2019-04-22T15:45:54.930Z,27.30
2019-04-22T15:48:25.126Z,27.60
2019-04-22T15:50:55.144Z,27.70
2019-04-22T15:53:25.466Z,28.50
2019-04-22T15:55:56.623Z,28.00
2019-04-22T15:58:28.140Z,28.10
2019-04-22T16:01:08.891Z,28.50
2019-04-22T16:03:30.023Z,28.10
2019-04-22T16:06:00.100Z,28.40
2019-04-22T16:08:33.561Z,28.70
2019-04-22T16:11:02.137Z,28.60
2019-04-22T16:13:35.826Z,28.70
2019-04-22T16:16:04.793Z,28.50
2019-04-22T16:18:36.140Z,28.60
2019-04-22T16:21:07.153Z,28.80
2019-04-22T16:23:40.319Z,28.80
2019-04-22T16:26:22.072Z,29.10
2019-04-22T16:28:55.629Z,28.40
2019-04-22T16:31:25.110Z,28.60
2019-04-22T16:33:56.382Z,28.50
2019-04-22T16:36:27.065Z,28.60
2019-04-22T16:38:57.162Z,29.00
2019-04-22T16:41:28.677Z,29.00
2019-04-22T16:43:58.872Z,29.00
2019-04-22T16:46:29.732Z,29.20
2019-04-22T16:49:01.423Z,29.70
2019-04-22T16:51:32.077Z,29.70
2019-04-22T16:54:02.315Z,29.70
2019-04-22T16:56:37.223Z,29.20
2019-04-22T16:59:08.666Z,29.60
2019-04-22T17:01:43.377Z,29.80
2019-04-22T17:04:28.274Z,29.70
2019-04-22T17:06:59.539Z,29.90
2019-04-22T17:09:29.906Z,30.00
2019-04-22T17:12:01.495Z,30.40
2019-04-22T17:14:35.904Z,30.00
2019-04-22T17:17:04.352Z,30.10
2019-04-22T17:19:35.586Z,30.70
2019-04-22T17:22:06.240Z,30.30
2019-04-22T17:24:37.397Z,29.90
2019-04-22T17:27:08.658Z,29.90
2019-04-22T17:29:41.071Z,29.70
2019-04-22T17:32:22.988Z,29.90
2019-04-22T17:34:52.176Z,30.30
2019-04-22T17:37:26.274Z,29.80
2019-04-22T17:40:10.104Z,29.90
2019-04-22T17:42:46.482Z,29.80
2019-04-22T17:45:40.439Z,30.00
2019-04-22T17:48:29.460Z,30.60
2019-04-22T17:51:16.260Z,30.40
2019-04-22T17:56:13.832Z,31.30
2019-04-22T17:58:59.035Z,31.50
2019-04-22T18:01:29.679Z,32.10
2019-04-22T18:03:48.931Z,32.70
2019-04-22T18:06:42.639Z,33.00
2019-04-22T18:09:05.029Z,33.30
2019-04-22T18:11:59.083Z,33.50
2019-04-22T18:14:29.920Z,33.80
2019-04-22T18:16:47.660Z,34.00
2019-04-22T18:19:19.625Z,34.30
2019-04-22T18:21:53.348Z,34.10
2019-04-22T18:24:20.007Z,34.20
2019-04-22T18:27:28.886Z,34.50
2019-04-22T18:29:41.813Z,34.40
2019-04-22T18:32:08.790Z,34.30
2019-04-22T18:34:44.339Z,34.00
2019-04-22T18:37:16.598Z,34.20
2019-04-22T18:39:58.373Z,34.30
2019-04-22T18:42:23.906Z,34.30
2019-04-22T18:45:00.185Z,34.60
2019-04-22T18:47:25.580Z,34.60
2019-04-22T18:49:59.223Z,34.70
2019-04-22T18:52:47.959Z,34.80
2019-04-22T18:55:19.315Z,34.80
2019-04-22T18:58:01.077Z,35.00
2019-04-22T19:00:39.652Z,34.70
2019-04-22T19:03:16.549Z,35.10
2019-04-22T19:06:03.605Z,35.10
2019-04-22T19:08:43.429Z,34.80
2019-04-22T19:14:03.635Z,34.70
2019-04-22T19:19:05.881Z,34.90
2019-04-22T19:21:25.347Z,34.50
2019-04-22T19:24:05.305Z,34.70
2019-04-22T19:26:57.756Z,34.70
2019-04-22T19:29:05.651Z,34.80
2019-04-22T19:31:49.653Z,35.00
2019-04-22T19:34:16.639Z,35.00
2019-04-22T19:36:51.865Z,35.30
2019-04-22T19:39:18.239Z,36.00
2019-04-22T19:42:00.898Z,36.30
2019-04-22T19:44:33.280Z,36.40
2019-04-22T19:49:48.358Z,36.90
2019-04-22T19:52:20.597Z,37.30
2019-04-22T19:54:46.699Z,37.80
2019-04-22T19:57:17.386Z,38.20
2019-04-22T19:59:51.152Z,38.40
2019-04-22T20:02:51.095Z,38.70
2019-04-22T20:05:44.530Z,39.10
2019-04-22T20:08:14.514Z,39.60
2019-04-22T20:10:45.954Z,39.80
2019-04-22T20:13:24.428Z,40.10
2019-04-22T20:15:43.367Z,40.30
2019-04-22T20:21:09.337Z,40.70
2019-04-22T20:23:41.752Z,40.80
2019-04-22T20:26:16.213Z,41.00
2019-04-22T20:28:52.723Z,41.10
2019-04-22T20:31:37.878Z,41.30
2019-04-22T20:34:09.118Z,41.60
2019-04-22T20:39:11.031Z,42.30
2019-04-22T20:41:43.023Z,42.60
2019-04-22T20:44:22.572Z,42.90
2019-04-22T20:46:54.265Z,43.00
2019-04-22T20:49:27.055Z,43.30
2019-04-22T20:54:28.582Z,43.70
2019-04-22T20:56:55.347Z,43.90
2019-04-22T20:59:27.162Z,44.10
2019-04-22T21:02:03.142Z,44.20
2019-04-22T21:04:34.894Z,44.30
2019-04-22T21:07:08.106Z,44.30
2019-04-22T21:09:58.087Z,44.60
2019-04-22T21:12:28.896Z,44.80
2019-04-22T21:15:23.963Z,45.10
2019-04-22T21:17:44.812Z,45.40
2019-04-22T21:20:31.800Z,45.60
2019-04-22T21:23:02.921Z,45.70
2019-04-22T21:25:27.983Z,45.70
2019-04-22T21:28:09.587Z,45.80
2019-04-22T21:30:40.346Z,45.90
2019-04-22T21:33:09.670Z,45.70
2019-04-22T21:35:59.674Z,46.40
2019-04-22T21:38:26.583Z,46.60
2019-04-22T21:40:56.401Z,46.60
2019-04-22T21:43:29.889Z,46.70
2019-04-22T21:46:01.275Z,47.00
2019-04-22T21:48:36.867Z,47.20
2019-04-22T21:51:16.489Z,47.30
2019-04-22T21:53:45.542Z,47.40
2019-04-22T21:56:29.078Z,47.70
2019-04-22T21:58:57.471Z,47.80
2019-04-22T22:01:50.065Z,47.90
2019-04-22T22:04:11.207Z,48.00
2019-04-22T22:06:34.646Z,48.10
2019-04-22T22:09:15.722Z,48.30
2019-04-22T22:11:46.235Z,48.40
2019-04-22T22:14:16.943Z,49.10
2019-04-22T22:16:42.911Z,48.50
2019-04-22T22:19:25.479Z,49.00
2019-04-22T22:21:57.042Z,48.60
2019-04-22T22:24:34.239Z,48.70
2019-04-22T22:27:14.313Z,48.80
2019-04-22T22:32:25.654Z,49.10
2019-04-22T22:35:00.468Z,49.20
2019-04-22T22:37:23.848Z,49.30
2019-04-22T22:39:56.622Z,49.40
2019-04-22T22:42:28.828Z,49.50
2019-04-22T22:45:02.327Z,49.50
2019-04-22T22:47:39.359Z,49.70
2019-04-22T22:50:20.078Z,49.70
2019-04-22T22:52:58.951Z,49.90
2019-04-22T22:55:28.921Z,50.00
2019-04-22T22:58:06.139Z,50.10
2019-04-22T23:00:31.311Z,50.30
2019-04-22T23:03:28.554Z,50.30
2019-04-22T23:08:25.667Z,50.70
2019-04-22T23:11:00.724Z,50.80
2019-04-22T23:13:31.478Z,51.00
2019-04-22T23:15:55.608Z,51.00
2019-04-22T23:18:14.027Z,51.00
2019-04-22T23:20:47.804Z,51.20
2019-04-22T23:23:39.446Z,51.40
2019-04-22T23:26:09.073Z,51.50
2019-04-22T23:28:51.057Z,51.70
2019-04-22T23:31:20.703Z,51.70
2019-04-22T23:34:06.728Z,52.10
2019-04-22T23:36:42.057Z,52.00
2019-04-22T23:39:20.300Z,52.10
2019-04-22T23:42:06.171Z,52.10
2019-04-22T23:44:42.272Z,52.30
2019-04-22T23:47:11.103Z,52.30
2019-04-22T23:49:53.347Z,52.50
2019-04-22T23:52:23.976Z,52.50
2019-04-22T23:55:13.294Z,52.60
2019-04-22T23:57:42.182Z,52.90
